createdAt,value
2022-08-07T00:00:30.631Z,7.35
2022-08-07T00:02:58.255Z,7.15
2022-08-07T00:05:28.148Z,6.85
2022-08-07T00:07:59.857Z,5.82
2022-08-07T00:10:29.604Z,4.60
2022-08-07T00:13:03.205Z,5.82
2022-08-07T00:15:46.759Z,6.25
2022-08-07T00:18:24.283Z,7.05
2022-08-07T00:20:56.756Z,6.25
2022-08-07T00:23:25.522Z,6.05
2022-08-07T00:26:00.217Z,8.35
2022-08-07T00:28:33.441Z,7.72
2022-08-07T00:31:06.106Z,8.43
2022-08-07T00:33:40.952Z,5.88
2022-08-07T00:36:09.894Z,6.07
2022-08-07T00:38:39.005Z,6.60
2022-08-07T00:41:10.000Z,6.30
2022-08-07T00:44:01.580Z,6.80
2022-08-07T00:46:33.038Z,5.45
2022-08-07T00:49:03.138Z,5.03
2022-08-07T00:51:57.071Z,5.45
2022-08-07T00:54:20.148Z,6.82
2022-08-07T00:56:49.804Z,5.38
2022-08-07T00:59:20.299Z,5.50
2022-08-07T01:02:13.931Z,8.30
2022-08-07T01:04:58.395Z,6.38
2022-08-07T01:07:29.226Z,7.30
2022-08-07T01:10:06.603Z,5.40
2022-08-07T01:12:53.389Z,8.63
2022-08-07T01:15:36.052Z,7.55
2022-08-07T01:18:16.929Z,6.40
2022-08-07T01:20:59.581Z,4.95
2022-08-07T01:23:38.169Z,7.07
2022-08-07T01:26:12.362Z,6.65
2022-08-07T01:28:51.655Z,7.18
2022-08-07T01:31:41.742Z,7.47
2022-08-07T01:34:14.389Z,4.90
2022-08-07T01:36:44.179Z,5.70
2022-08-07T01:39:17.846Z,5.25
2022-08-07T01:42:07.304Z,5.75
2022-08-07T01:44:42.969Z,6.88
2022-08-07T01:48:29.674Z,5.93
2022-08-07T01:50:06.119Z,5.88
2022-08-07T01:52:36.391Z,5.45
2022-08-07T01:55:07.622Z,5.47
2022-08-07T01:58:06.070Z,4.20
2022-08-07T02:00:45.348Z,6.00
2022-08-07T02:03:21.739Z,5.88
2022-08-07T02:06:00.061Z,7.70
2022-08-07T02:08:40.404Z,5.95
2022-08-07T02:11:11.097Z,6.88
2022-08-07T02:14:02.557Z,6.65
2022-08-07T02:16:34.122Z,5.50
2022-08-07T02:20:05.058Z,6.25
2022-08-07T02:21:58.535Z,5.15
2022-08-07T02:24:29.898Z,6.05
2022-08-07T02:27:02.680Z,5.47
2022-08-07T02:29:43.402Z,5.15
2022-08-07T02:32:23.282Z,7.00
2022-08-07T02:34:53.099Z,6.20
2022-08-07T02:37:26.358Z,6.50
2022-08-07T02:40:02.099Z,6.40
2022-08-07T02:42:43.910Z,5.45
2022-08-07T02:45:59.210Z,6.05
2022-08-07T02:48:03.007Z,6.30
2022-08-07T02:50:35.109Z,5.25
2022-08-07T02:53:10.856Z,7.80
2022-08-07T02:56:04.054Z,5.10
2022-08-07T02:58:36.707Z,5.35
2022-08-07T03:01:16.007Z,5.40
2022-08-07T03:03:49.899Z,8.70
2022-08-07T03:06:26.240Z,7.90
2022-08-07T03:09:07.560Z,7.05
2022-08-07T03:11:52.429Z,5.43
2022-08-07T03:14:28.566Z,6.63
2022-08-07T03:16:57.763Z,6.85
2022-08-07T03:19:28.935Z,6.63
2022-08-07T03:22:06.894Z,8.15
2022-08-07T03:24:35.150Z,6.32
2022-08-07T03:27:08.994Z,6.88
2022-08-07T03:29:51.534Z,5.88
2022-08-07T03:32:29.640Z,5.10
2022-08-07T03:35:18.112Z,5.65
2022-08-07T03:37:55.166Z,6.35
2022-08-07T03:40:36.654Z,5.13
2022-08-07T03:43:14.540Z,5.50
2022-08-07T03:45:50.226Z,5.63
2022-08-07T03:48:24.118Z,5.22
2022-08-07T03:50:57.587Z,6.53
2022-08-07T03:54:01.804Z,6.60
2022-08-07T03:56:33.081Z,6.30
2022-08-07T03:59:10.014Z,5.55
2022-08-07T04:01:46.195Z,8.82
2022-08-07T04:04:18.085Z,6.18
2022-08-07T04:06:50.940Z,5.18
2022-08-07T04:09:23.405Z,6.72
2022-08-07T04:12:26.331Z,5.13
2022-08-07T04:14:47.672Z,6.40
2022-08-07T04:17:20.720Z,6.20
2022-08-07T04:19:52.080Z,6.53
2022-08-07T04:22:28.873Z,6.35
2022-08-07T04:25:02.139Z,3.42
2022-08-07T04:30:35.847Z,9.18
2022-08-07T04:33:10.085Z,5.28
2022-08-07T04:35:50.173Z,6.07
2022-08-07T04:38:19.790Z,5.90
2022-08-07T04:40:51.688Z,6.13
2022-08-07T04:44:11.264Z,8.10
2022-08-07T04:46:29.530Z,5.95
2022-08-07T04:49:24.263Z,6.28
2022-08-07T04:52:07.512Z,6.63
2022-08-07T04:54:39.598Z,6.20
2022-08-07T04:58:12.544Z,6.80
2022-08-07T05:00:30.284Z,7.72
2022-08-07T05:03:16.697Z,9.48
2022-08-07T05:06:20.014Z,6.38
2022-08-07T05:09:43.136Z,5.82
2022-08-07T05:12:27.334Z,6.22
2022-08-07T05:15:23.495Z,6.63
2022-08-07T05:18:08.604Z,6.32
2022-08-07T05:20:46.930Z,6.40
2022-08-07T05:23:48.308Z,5.85
2022-08-07T05:26:24.135Z,6.90
2022-08-07T05:29:04.248Z,7.40
2022-08-07T05:31:38.677Z,10.43
2022-08-07T05:34:17.333Z,6.43
2022-08-07T05:36:54.173Z,6.38
2022-08-07T05:40:13.381Z,7.38
2022-08-07T05:42:33.856Z,6.43
2022-08-07T05:45:26.117Z,6.75
2022-08-07T05:48:02.427Z,9.18
2022-08-07T05:50:43.526Z,7.95
2022-08-07T05:54:12.815Z,6.93
2022-08-07T05:56:06.135Z,7.63
2022-08-07T05:58:49.186Z,6.82
2022-08-07T06:01:23.635Z,7.78
2022-08-07T06:03:58.475Z,9.48
2022-08-07T06:06:34.926Z,8.07
2022-08-07T06:09:06.697Z,6.00
2022-08-07T06:11:40.551Z,6.15
2022-08-07T06:14:12.958Z,7.55
2022-08-07T06:16:56.193Z,7.68
2022-08-07T06:19:47.980Z,9.63
2022-08-07T06:22:23.833Z,7.45
2022-08-07T06:25:06.410Z,9.70
2022-08-07T06:27:44.304Z,6.78
2022-08-07T06:30:35.569Z,8.20
2022-08-07T06:33:15.972Z,5.97
2022-08-07T06:36:06.083Z,9.00
2022-08-07T06:38:34.982Z,6.88
2022-08-07T06:41:15.937Z,5.97
2022-08-07T06:44:01.294Z,5.80
2022-08-07T06:46:37.399Z,9.65
2022-08-07T06:49:08.791Z,6.88
2022-08-07T06:51:43.438Z,7.47
2022-08-07T06:55:32.587Z,5.85
2022-08-07T06:57:14.398Z,7.25
2022-08-07T07:00:13.715Z,5.68
2022-08-07T07:02:49.189Z,5.80
2022-08-07T07:06:05.784Z,5.15
2022-08-07T07:08:18.548Z,5.22
2022-08-07T07:10:56.419Z,5.53
2022-08-07T07:13:40.521Z,5.65
2022-08-07T07:16:27.214Z,4.80
2022-08-07T07:19:19.007Z,6.88
2022-08-07T07:22:12.035Z,6.30
2022-08-07T07:25:03.118Z,6.88
2022-08-07T07:27:55.640Z,6.47
2022-08-07T07:30:38.583Z,4.45
2022-08-07T07:33:12.263Z,8.80
2022-08-07T07:36:03.868Z,4.05
2022-08-07T07:38:35.826Z,5.85
2022-08-07T07:41:08.903Z,5.40
2022-08-07T07:44:14.130Z,7.45
2022-08-07T07:46:37.564Z,5.03
2022-08-07T07:50:34.880Z,6.32
2022-08-07T07:52:09.826Z,4.93
2022-08-07T07:54:38.163Z,5.60
2022-08-07T07:57:14.392Z,7.43
2022-08-07T07:59:52.464Z,5.65
2022-08-07T08:02:35.434Z,4.60
2022-08-07T08:05:14.304Z,8.32
2022-08-07T08:07:59.717Z,7.05
2022-08-07T08:10:35.487Z,5.97
2022-08-07T08:13:10.365Z,6.18
2022-08-07T08:15:59.148Z,5.32
2022-08-07T08:18:30.179Z,6.93
2022-08-07T08:21:01.657Z,4.80
2022-08-07T08:23:53.327Z,8.23
2022-08-07T08:26:41.270Z,5.75
2022-08-07T08:29:10.197Z,7.57
2022-08-07T08:32:16.975Z,7.80
2022-08-07T08:34:35.797Z,7.25
2022-08-07T08:37:09.853Z,9.13
2022-08-07T08:39:54.974Z,6.72
2022-08-07T08:43:05.274Z,9.95
2022-08-07T08:45:58.884Z,5.88
2022-08-07T08:48:50.930Z,5.32
2022-08-07T08:51:49.467Z,8.90
2022-08-07T08:54:43.484Z,6.15
2022-08-07T08:57:23.932Z,5.57
2022-08-07T09:00:01.637Z,8.20
2022-08-07T09:03:14.410Z,7.75
2022-08-07T09:06:01.730Z,6.18
2022-08-07T09:11:25.051Z,7.20
2022-08-07T09:14:24.254Z,6.07
2022-08-07T09:17:05.835Z,9.15
2022-08-07T09:19:56.619Z,7.63
2022-08-07T09:24:34.985Z,6.00
2022-08-07T09:25:54.723Z,6.63
2022-08-07T09:30:01.153Z,7.57
2022-08-07T09:32:18.508Z,6.68
2022-08-07T09:36:05.246Z,4.82
2022-08-07T09:38:25.500Z,7.68
2022-08-07T09:41:17.053Z,5.95
2022-08-07T09:44:05.910Z,7.85
2022-08-07T09:47:49.711Z,6.20
2022-08-07T09:50:19.568Z,5.90
2022-08-07T09:52:52.485Z,6.85
2022-08-07T09:55:29.967Z,4.95
2022-08-07T09:58:35.187Z,7.90
2022-08-07T10:01:51.099Z,7.30
2022-08-07T10:04:57.240Z,7.80
2022-08-07T10:07:55.213Z,7.20
2022-08-07T10:11:17.121Z,7.22
2022-08-07T10:14:14.983Z,5.28
2022-08-07T10:17:16.598Z,8.07
2022-08-07T10:20:03.574Z,6.32
2022-08-07T10:22:43.240Z,6.10
2022-08-07T10:25:43.615Z,4.43
2022-08-07T10:28:22.071Z,5.45
2022-08-07T10:31:15.142Z,6.05
2022-08-07T10:34:18.500Z,8.38
2022-08-07T10:37:59.853Z,6.70
2022-08-07T10:40:21.798Z,9.90
2022-08-07T10:43:05.836Z,9.15
2022-08-07T10:45:44.809Z,5.57
2022-08-07T10:48:34.677Z,6.20
2022-08-07T10:51:16.255Z,5.97
2022-08-07T10:54:17.878Z,8.23
2022-08-07T10:57:33.864Z,5.57
2022-08-07T11:00:09.966Z,6.65
2022-08-07T11:03:17.107Z,4.72
2022-08-07T11:05:51.364Z,5.93
2022-08-07T11:09:11.338Z,5.68
2022-08-07T11:12:01.187Z,6.53
2022-08-07T11:15:00.191Z,7.50
2022-08-07T11:17:43.607Z,4.35
2022-08-07T11:20:26.627Z,4.75
2022-08-07T11:25:25.666Z,5.30
2022-08-07T11:28:20.002Z,7.00
2022-08-07T11:30:55.961Z,5.93
2022-08-07T11:33:58.548Z,6.38
2022-08-07T11:37:04.334Z,6.90
2022-08-07T11:40:19.273Z,5.50
2022-08-07T11:42:59.071Z,5.05
2022-08-07T11:45:50.136Z,6.43
2022-08-07T11:48:29.233Z,7.60
2022-08-07T11:51:41.331Z,4.93
2022-08-07T11:54:31.558Z,5.93
2022-08-07T11:57:12.762Z,5.05
2022-08-07T12:00:19.585Z,7.25
2022-08-07T12:02:52.509Z,6.05
2022-08-07T12:05:28.850Z,5.22
2022-08-07T12:08:25.861Z,5.05
2022-08-07T12:11:20.811Z,5.63
2022-08-07T12:14:19.177Z,5.22
2022-08-07T12:16:54.938Z,4.28
2022-08-07T12:19:56.458Z,6.22
2022-08-07T12:22:47.196Z,4.78
2022-08-07T12:26:05.785Z,5.07
2022-08-07T12:29:08.460Z,4.80
2022-08-07T12:31:52.737Z,6.18
2022-08-07T12:34:34.349Z,6.32
2022-08-07T12:37:08.162Z,5.38
2022-08-07T12:39:44.108Z,6.47
2022-08-07T12:42:27.737Z,4.22
2022-08-07T12:45:06.562Z,8.27
2022-08-07T12:47:57.676Z,3.05
2022-08-07T12:50:49.095Z,4.55
2022-08-07T12:53:29.545Z,4.90
2022-08-07T12:56:29.503Z,5.97
2022-08-07T12:58:59.692Z,5.60
2022-08-07T13:01:49.812Z,7.65
2022-08-07T13:05:01.476Z,4.77
2022-08-07T13:08:18.829Z,6.03
2022-08-07T13:11:08.693Z,4.70
2022-08-07T13:13:50.207Z,7.20
2022-08-07T13:16:31.167Z,3.97
2022-08-07T13:19:21.767Z,4.90
2022-08-07T13:22:19.666Z,3.60
2022-08-07T13:25:00.422Z,5.53
2022-08-07T13:28:11.541Z,4.47
2022-08-07T13:30:53.564Z,3.47
2022-08-07T13:34:30.162Z,6.82
2022-08-07T13:36:57.775Z,4.13
2022-08-07T13:40:33.881Z,4.38
2022-08-07T13:42:30.084Z,4.07
2022-08-07T13:45:20.961Z,4.93
2022-08-07T13:48:06.221Z,5.55
2022-08-07T13:50:44.991Z,4.38
2022-08-07T13:54:00.180Z,4.78
2022-08-07T13:56:35.963Z,7.35
2022-08-07T13:59:13.508Z,6.45
2022-08-07T14:01:59.293Z,3.55
2022-08-07T14:04:48.873Z,8.30
2022-08-07T14:07:27.579Z,4.40
2022-08-07T14:10:17.561Z,4.13
2022-08-07T14:13:02.863Z,6.32
2022-08-07T14:15:40.456Z,4.80
2022-08-07T14:18:30.468Z,5.32
2022-08-07T14:21:20.743Z,4.38
2022-08-07T14:24:04.028Z,4.50
2022-08-07T14:26:50.029Z,3.92
2022-08-07T14:30:06.340Z,6.10
2022-08-07T14:32:16.353Z,4.95
2022-08-07T14:34:48.161Z,6.78
2022-08-07T14:37:18.750Z,7.07
2022-08-07T14:40:19.724Z,4.63
2022-08-07T14:43:55.594Z,4.10
2022-08-07T14:45:46.302Z,5.97
2022-08-07T14:48:21.732Z,5.07
2022-08-07T14:51:00.146Z,4.85
2022-08-07T14:54:05.696Z,5.63
2022-08-07T14:56:29.486Z,6.40
2022-08-07T14:59:13.708Z,6.13
2022-08-07T15:02:34.278Z,5.80
2022-08-07T15:05:01.660Z,6.28
2022-08-07T15:07:47.603Z,5.93
2022-08-07T15:10:26.434Z,6.22
2022-08-07T15:13:00.890Z,5.43
2022-08-07T15:15:42.836Z,5.70
2022-08-07T15:21:58.642Z,3.63
2022-08-07T15:25:15.715Z,5.47
2022-08-07T15:27:21.651Z,5.40
2022-08-07T15:30:16.416Z,8.48
2022-08-07T15:32:51.036Z,5.13
2022-08-07T15:36:00.832Z,5.78
2022-08-07T15:38:31.220Z,4.43
2022-08-07T15:42:42.248Z,5.80
2022-08-07T15:44:17.217Z,5.68
2022-08-07T15:46:52.687Z,4.75
2022-08-07T15:50:05.426Z,6.60
2022-08-07T15:52:30.049Z,6.15
2022-08-07T15:55:08.572Z,6.25
2022-08-07T15:57:48.021Z,8.20
2022-08-07T16:00:31.029Z,6.97
2022-08-07T16:03:22.006Z,6.68
2022-08-07T16:06:05.819Z,7.13
2022-08-07T16:08:38.638Z,6.13
2022-08-07T16:11:28.793Z,5.28
2022-08-07T16:14:03.180Z,4.57
2022-08-07T16:17:16.074Z,5.15
2022-08-07T16:20:01.789Z,2.75
2022-08-07T16:22:55.510Z,4.65
2022-08-07T16:25:52.479Z,3.55
2022-08-07T16:30:07.340Z,5.53
2022-08-07T16:31:50.797Z,5.13
2022-08-07T16:34:32.443Z,7.68
2022-08-07T16:38:05.326Z,7.18
2022-08-07T16:40:33.332Z,4.50
2022-08-07T16:43:01.163Z,8.40
2022-08-07T16:46:21.298Z,6.53
2022-08-07T16:49:04.395Z,6.68
2022-08-07T16:54:54.953Z,6.13
2022-08-07T16:58:01.788Z,6.65
2022-08-07T17:00:41.855Z,4.25
2022-08-07T17:03:17.226Z,7.85
2022-08-07T17:06:28.651Z,7.63
2022-08-07T17:09:10.601Z,6.25
2022-08-07T17:12:04.070Z,3.95
2022-08-07T17:15:00.254Z,7.00
2022-08-07T17:17:52.579Z,7.97
2022-08-07T17:20:37.740Z,6.38
2022-08-07T17:23:32.565Z,8.23
2022-08-07T17:26:22.930Z,6.18
2022-08-07T17:29:09.566Z,6.88
2022-08-07T17:32:30.095Z,5.22
2022-08-07T17:35:50.882Z,5.05
2022-08-07T17:38:33.575Z,5.15
2022-08-07T17:42:01.961Z,4.57
2022-08-07T17:44:33.523Z,5.70
2022-08-07T17:47:37.890Z,5.80
2022-08-07T17:50:20.023Z,9.88
2022-08-07T17:53:59.467Z,8.27
2022-08-07T17:56:28.661Z,8.02
2022-08-07T17:58:57.342Z,6.43
2022-08-07T18:02:00.250Z,6.78
2022-08-07T18:04:34.777Z,7.57
2022-08-07T18:07:20.667Z,8.35
2022-08-07T18:10:05.970Z,10.50
2022-08-07T18:12:49.627Z,10.45
2022-08-07T18:15:53.549Z,5.60
2022-08-07T18:18:45.695Z,5.63
2022-08-07T18:21:51.619Z,6.18
2022-08-07T18:24:36.451Z,7.30
2022-08-07T18:27:38.995Z,6.88
2022-08-07T18:30:32.765Z,5.60
2022-08-07T18:33:54.766Z,5.93
2022-08-07T18:36:53.892Z,6.60
2022-08-07T18:40:06.952Z,8.25
2022-08-07T18:42:46.116Z,5.03
2022-08-07T18:45:44.399Z,8.32
2022-08-07T18:50:05.462Z,7.72
2022-08-07T18:52:33.816Z,4.25
2022-08-07T18:54:30.979Z,5.07
2022-08-07T18:57:30.963Z,8.27
2022-08-07T19:00:32.975Z,5.28
2022-08-07T19:03:23.759Z,8.80
2022-08-07T19:06:16.615Z,7.63
2022-08-07T19:09:09.050Z,10.57
2022-08-07T19:12:05.227Z,5.05
2022-08-07T19:15:03.067Z,4.47
2022-08-07T19:18:18.352Z,5.90
2022-08-07T19:21:43.841Z,9.40
2022-08-07T19:24:30.691Z,6.30
2022-08-07T19:28:57.421Z,8.38
2022-08-07T19:30:57.590Z,4.72
2022-08-07T19:32:59.457Z,7.13
2022-08-07T19:35:33.422Z,5.95
2022-08-07T19:38:15.741Z,7.45
2022-08-07T19:40:50.516Z,4.95
2022-08-07T19:43:50.299Z,6.63
2022-08-07T19:46:14.546Z,6.20
2022-08-07T19:48:53.520Z,8.98
2022-08-07T19:51:51.755Z,7.93
2022-08-07T19:54:33.335Z,10.77
2022-08-07T19:57:51.305Z,6.22
2022-08-07T19:59:59.935Z,8.13
2022-08-07T20:02:39.162Z,6.63
2022-08-07T20:05:09.926Z,5.15
2022-08-07T20:07:48.215Z,8.25
2022-08-07T20:10:35.616Z,6.60
2022-08-07T20:13:27.050Z,7.75
2022-08-07T20:16:03.739Z,6.97
2022-08-07T20:18:34.339Z,7.40
2022-08-07T20:21:21.593Z,6.15
2022-08-07T20:23:57.964Z,12.77
2022-08-07T20:26:38.561Z,10.65
2022-08-07T20:29:17.005Z,6.38
2022-08-07T20:32:05.731Z,10.38
2022-08-07T20:34:50.717Z,7.97
2022-08-07T20:37:26.423Z,7.47
2022-08-07T20:40:02.792Z,7.20
2022-08-07T20:42:33.868Z,9.55
2022-08-07T20:45:32.874Z,7.90
2022-08-07T20:47:58.172Z,7.70
2022-08-07T20:50:30.647Z,6.22
2022-08-07T20:52:59.192Z,9.82
2022-08-07T20:55:28.452Z,8.40
2022-08-07T20:58:03.384Z,8.48
2022-08-07T21:00:42.746Z,11.90
2022-08-07T21:03:16.766Z,9.13
2022-08-07T21:06:25.807Z,6.60
2022-08-07T21:09:01.159Z,8.05
2022-08-07T21:11:40.131Z,6.90
2022-08-07T21:14:34.326Z,10.73
2022-08-07T21:18:03.445Z,6.90
2022-08-07T21:20:04.951Z,6.90
2022-08-07T21:22:53.575Z,8.23
2022-08-07T21:25:38.957Z,7.13
2022-08-07T21:28:50.373Z,13.63
2022-08-07T21:32:43.159Z,9.95
2022-08-07T21:34:48.156Z,7.40
2022-08-07T21:37:24.578Z,8.75
2022-08-07T21:40:02.047Z,8.45
2022-08-07T21:42:56.085Z,11.30
2022-08-07T21:46:09.314Z,13.93
2022-08-07T21:48:42.365Z,11.60
2022-08-07T21:51:32.353Z,10.77
2022-08-07T21:54:14.123Z,14.20
2022-08-07T21:57:08.012Z,11.50
2022-08-07T22:00:04.217Z,9.50
2022-08-07T22:03:03.500Z,13.07
2022-08-07T22:05:48.180Z,12.77
2022-08-07T22:08:23.221Z,10.35
2022-08-07T22:10:59.797Z,12.65
2022-08-07T22:13:52.102Z,10.30
2022-08-07T22:16:39.489Z,9.38
2022-08-07T22:22:28.626Z,14.30
2022-08-07T22:25:03.373Z,14.52
2022-08-07T22:28:07.262Z,9.65
2022-08-07T22:30:53.111Z,9.95
2022-08-07T22:33:53.698Z,14.90
2022-08-07T22:36:38.477Z,14.38
2022-08-07T22:39:35.343Z,20.40
2022-08-07T22:42:30.474Z,13.35
2022-08-07T22:45:03.635Z,13.02
2022-08-07T22:47:55.400Z,12.05
2022-08-07T22:50:36.131Z,14.05
2022-08-07T22:54:07.501Z,13.00
2022-08-07T22:57:05.345Z,10.38
2022-08-07T22:59:41.477Z,12.27
2022-08-07T23:02:50.417Z,10.50
2022-08-07T23:06:08.528Z,11.93
2022-08-07T23:10:04.473Z,15.52
2022-08-07T23:12:20.917Z,13.80
2022-08-07T23:15:21.896Z,12.15
2022-08-07T23:18:27.413Z,12.48
2022-08-07T23:21:18.190Z,13.30
2022-08-07T23:24:11.878Z,13.20
2022-08-07T23:26:55.104Z,13.20
2022-08-07T23:30:37.093Z,14.13
2022-08-07T23:34:34.699Z,11.80
2022-08-07T23:36:17.241Z,11.48
2022-08-07T23:39:22.079Z,11.55
2022-08-07T23:42:05.037Z,15.05
2022-08-07T23:44:51.582Z,11.75
2022-08-07T23:47:46.716Z,18.90
2022-08-07T23:50:24.983Z,11.40
2022-08-07T23:53:16.985Z,15.48
2022-08-07T23:56:11.694Z,13.32
2022-08-07T23:58:45.356Z,14.35
